Terminal Aerodrome Forecast
Issued by NWS Grand Forks, ND

Home | Current Version | Previous Version | Text Only | Print | Product List | Glossary Off
Versions: 1 2 3 4 5 6 7 8 9 10 11 12 13 14 15 16 17 18 19

546
FTUS43 KFGF 252252 AAF
TAFGFK
TAF AMD
KGFK 252252Z 2523/2618 06012KT P6SM -SHRA BKN025
     FM260000 05009KT P6SM BKN025
     FM260300 35006KT P6SM BKN025
     FM260800 22008KT P6SM BKN020=

USA.gov is the U.S. government's official web portal to all federal, state and local government web resources and services.